createdAt,value
2019-02-14T00:01:52.726Z,94.63
2019-02-14T00:04:21.154Z,94.96
2019-02-14T00:06:49.548Z,94.86
2019-02-14T00:09:18.036Z,94.88
2019-02-14T00:11:46.445Z,94.90
2019-02-14T00:14:14.837Z,94.78
2019-02-14T00:16:43.270Z,95.02
2019-02-14T00:19:11.675Z,95.13
2019-02-14T00:21:40.088Z,95.29
2019-02-14T00:24:08.490Z,95.55
2019-02-14T00:26:36.881Z,95.33
2019-02-14T00:29:05.357Z,95.08
2019-02-14T00:31:33.780Z,95.05
2019-02-14T00:34:02.177Z,95.05
2019-02-14T00:36:30.576Z,95.26
2019-02-14T00:38:58.976Z,95.45
2019-02-14T00:41:27.381Z,95.43
2019-02-14T00:43:55.796Z,95.36
2019-02-14T00:46:24.210Z,95.50
2019-02-14T00:48:52.631Z,95.50
2019-02-14T00:51:21.037Z,95.42
2019-02-14T00:53:49.454Z,95.79
2019-02-14T00:56:17.862Z,95.55
2019-02-14T00:58:46.281Z,95.51
2019-02-14T01:01:14.679Z,95.77
2019-02-14T01:03:43.142Z,95.82
2019-02-14T01:06:11.637Z,96.15
2019-02-14T01:08:40.052Z,96.23
2019-02-14T01:11:08.467Z,95.88
2019-02-14T01:13:36.859Z,95.87
2019-02-14T01:16:05.338Z,95.97
2019-02-14T01:18:33.755Z,95.83
2019-02-14T01:21:02.149Z,96.13
2019-02-14T01:23:30.626Z,96.05
2019-02-14T01:25:59.106Z,96.21
2019-02-14T01:28:27.505Z,96.34
2019-02-14T01:30:55.940Z,96.43
2019-02-14T01:33:24.405Z,95.92
2019-02-14T01:35:52.968Z,95.67
2019-02-14T01:38:21.402Z,95.64
2019-02-14T01:40:49.801Z,95.65
2019-02-14T01:43:18.207Z,95.67
2019-02-14T01:45:46.623Z,95.82
2019-02-14T01:48:15.017Z,96.10
2019-02-14T01:50:43.424Z,96.18
2019-02-14T01:53:11.831Z,95.95
2019-02-14T01:55:40.245Z,95.93
2019-02-14T01:58:08.724Z,96.17
2019-02-14T02:00:37.117Z,96.05
2019-02-14T02:03:05.589Z,95.84
2019-02-14T02:05:34.017Z,96.10
2019-02-14T02:08:02.414Z,96.27
2019-02-14T02:10:30.923Z,96.44
2019-02-14T02:12:59.395Z,96.40
2019-02-14T02:15:27.888Z,96.55
2019-02-14T02:17:56.281Z,96.45
2019-02-14T02:20:33.017Z,96.67
2019-02-14T02:22:54.813Z,96.49
2019-02-14T02:25:23.236Z,96.69
2019-02-14T02:27:51.636Z,96.51
2019-02-14T02:30:20.050Z,96.34
2019-02-14T02:32:48.441Z,96.40
2019-02-14T02:35:16.866Z,96.51
2019-02-14T02:37:45.272Z,96.24
2019-02-14T02:40:13.662Z,96.17
2019-02-14T02:42:42.077Z,96.28
2019-02-14T02:45:13.661Z,96.54
2019-02-14T02:47:42.055Z,96.33
2019-02-14T02:50:12.189Z,96.48
2019-02-14T02:52:40.669Z,96.51
2019-02-14T02:55:10.502Z,96.62
2019-02-14T02:57:38.899Z,96.15
2019-02-14T03:00:15.786Z,96.23
2019-02-14T03:02:44.182Z,95.92
2019-02-14T03:05:14.330Z,96.48
2019-02-14T03:07:42.766Z,96.91
2019-02-14T03:10:13.102Z,97.13
2019-02-14T03:12:41.598Z,96.70
2019-02-14T03:15:12.326Z,96.40
2019-02-14T03:17:40.819Z,96.36
2019-02-14T03:20:11.901Z,96.47
2019-02-14T03:22:40.302Z,96.33
2019-02-14T03:25:17.391Z,96.09
2019-02-14T03:27:45.816Z,96.47
2019-02-14T03:30:15.951Z,96.39
2019-02-14T03:32:44.425Z,96.70
2019-02-14T03:35:12.902Z,97.04
2019-02-14T03:37:41.309Z,97.10
2019-02-14T03:40:12.505Z,96.75
2019-02-14T03:42:40.913Z,96.61
2019-02-14T03:45:16.990Z,96.47
2019-02-14T03:47:45.385Z,96.62
2019-02-14T03:50:14.233Z,96.93
2019-02-14T03:52:42.707Z,96.86
2019-02-14T03:55:11.952Z,97.00
2019-02-14T03:57:40.444Z,97.10
2019-02-14T04:00:14.331Z,97.14
2019-02-14T04:02:42.719Z,96.48
2019-02-14T04:05:11.299Z,96.36
2019-02-14T04:07:40.148Z,96.44
2019-02-14T04:10:13.473Z,96.98
2019-02-14T04:12:41.972Z,97.27
2019-02-14T04:15:16.020Z,97.47
2019-02-14T04:17:44.424Z,97.67
2019-02-14T04:20:13.637Z,97.67
2019-02-14T04:22:42.035Z,97.04
2019-02-14T04:25:11.016Z,96.84
2019-02-14T04:27:39.464Z,96.85
2019-02-14T04:30:12.731Z,96.65
2019-02-14T04:32:41.199Z,96.72
2019-02-14T04:35:09.963Z,97.05
2019-02-14T04:37:38.378Z,97.00
2019-02-14T04:40:09.880Z,97.11
2019-02-14T04:42:38.307Z,96.92
2019-02-14T04:45:08.239Z,96.92
2019-02-14T04:47:36.646Z,97.23
2019-02-14T04:50:07.314Z,97.30
2019-02-14T04:52:35.693Z,97.61
2019-02-14T04:55:05.922Z,97.62
2019-02-14T04:57:34.351Z,97.20
2019-02-14T05:00:03.007Z,97.07
2019-02-14T05:02:31.413Z,96.60
2019-02-14T05:04:59.838Z,96.70
2019-02-14T05:07:28.281Z,96.89
2019-02-14T05:09:56.698Z,97.15
2019-02-14T05:12:26.256Z,97.28
2019-02-14T05:14:54.705Z,97.32
2019-02-14T05:17:23.119Z,97.55
2019-02-14T05:19:51.524Z,97.14
2019-02-14T05:22:19.938Z,97.16
2019-02-14T05:24:48.345Z,97.34
2019-02-14T05:27:16.754Z,97.18
2019-02-14T05:29:45.143Z,96.70
2019-02-14T05:32:13.553Z,97.07
2019-02-14T05:34:41.977Z,96.89
2019-02-14T05:37:10.397Z,97.45
2019-02-14T05:39:38.813Z,97.42
2019-02-14T05:42:07.219Z,97.69
2019-02-14T05:44:35.640Z,97.74
2019-02-14T05:47:04.115Z,97.56
2019-02-14T05:49:32.528Z,97.49
2019-02-14T05:52:00.920Z,97.66
2019-02-14T05:54:29.342Z,97.75
2019-02-14T05:56:57.744Z,98.07
2019-02-14T05:59:26.170Z,98.02
2019-02-14T06:01:54.575Z,97.85
2019-02-14T06:04:22.978Z,97.49
2019-02-14T06:06:51.394Z,97.23
2019-02-14T06:09:19.800Z,97.31
2019-02-14T06:11:48.234Z,97.55
2019-02-14T06:14:16.660Z,97.36
2019-02-14T06:16:45.081Z,97.30
2019-02-14T06:19:13.515Z,97.59
2019-02-14T06:21:41.903Z,97.85
2019-02-14T06:24:10.335Z,98.03
2019-02-14T06:26:38.726Z,97.98
2019-02-14T06:29:07.157Z,97.59
2019-02-14T06:31:35.569Z,97.53
2019-02-14T06:34:03.982Z,97.76
2019-02-14T06:36:32.396Z,97.99
2019-02-14T06:39:00.791Z,98.23
2019-02-14T06:41:29.241Z,98.30
2019-02-14T06:43:57.659Z,98.20
2019-02-14T06:46:26.078Z,98.21
2019-02-14T06:48:54.487Z,98.25
2019-02-14T06:51:22.901Z,97.43
2019-02-14T06:53:51.302Z,96.82
2019-02-14T06:56:19.722Z,96.75
2019-02-14T06:58:48.217Z,96.44
2019-02-14T07:01:16.645Z,97.01
2019-02-14T07:03:45.070Z,97.18
2019-02-14T07:06:13.474Z,97.50
2019-02-14T07:08:41.912Z,97.78
2019-02-14T07:11:10.320Z,97.63
2019-02-14T07:13:38.734Z,97.37
2019-02-14T07:16:07.146Z,97.38
2019-02-14T07:18:35.548Z,97.48
2019-02-14T07:21:03.963Z,97.26
2019-02-14T07:23:32.370Z,97.25
2019-02-14T07:26:00.846Z,97.08
2019-02-14T07:28:29.316Z,97.14
2019-02-14T07:30:57.754Z,97.28
2019-02-14T07:33:26.170Z,97.37
2019-02-14T07:35:54.579Z,97.68
2019-02-14T07:38:22.994Z,97.92
2019-02-14T07:40:51.440Z,98.04
2019-02-14T07:43:19.893Z,98.34
2019-02-14T07:45:48.325Z,98.28
2019-02-14T07:48:16.724Z,98.11
2019-02-14T07:50:45.119Z,98.11
2019-02-14T07:53:14.806Z,98.30
2019-02-14T07:55:43.206Z,98.30
2019-02-14T07:58:11.600Z,98.32
2019-02-14T08:00:40.014Z,98.05
2019-02-14T08:03:08.422Z,97.53
2019-02-14T08:05:36.850Z,97.30
2019-02-14T08:08:05.254Z,97.13
2019-02-14T08:10:33.671Z,97.27
2019-02-14T08:13:02.071Z,97.33
2019-02-14T08:15:30.673Z,97.31
2019-02-14T08:17:59.078Z,96.92
2019-02-14T08:20:27.477Z,97.36
2019-02-14T08:22:55.920Z,97.37
2019-02-14T08:25:24.320Z,97.45
2019-02-14T08:27:52.753Z,97.28
2019-02-14T08:30:21.323Z,97.26
2019-02-14T08:32:49.741Z,96.99
2019-02-14T08:35:18.169Z,97.10
2019-02-14T08:37:46.549Z,96.91
2019-02-14T08:40:26.925Z,96.91
2019-02-14T08:42:55.408Z,96.90
2019-02-14T08:45:24.035Z,96.91
2019-02-14T08:47:52.429Z,97.05
2019-02-14T08:50:20.944Z,96.99
2019-02-14T08:52:49.375Z,96.98
2019-02-14T08:55:17.775Z,96.85
2019-02-14T08:57:46.177Z,96.51
2019-02-14T09:00:16.032Z,96.28
2019-02-14T09:02:44.435Z,95.67
2019-02-14T09:05:12.981Z,95.22
2019-02-14T09:07:41.387Z,94.73
2019-02-14T09:10:12.880Z,94.48
2019-02-14T09:12:41.281Z,93.96
2019-02-14T09:15:14.369Z,93.74
2019-02-14T09:17:42.793Z,93.54
2019-02-14T09:20:14.012Z,91.76
2019-02-14T09:22:42.439Z,90.21
2019-02-14T09:25:10.918Z,89.81
2019-02-14T09:27:39.426Z,89.58
2019-02-14T09:30:14.751Z,90.03
2019-02-14T09:32:43.385Z,90.00
2019-02-14T09:35:11.947Z,90.18
2019-02-14T09:37:40.350Z,89.85
2019-02-14T09:40:14.050Z,90.03
2019-02-14T09:42:42.608Z,90.06
2019-02-14T09:45:12.849Z,89.79
2019-02-14T09:47:41.326Z,89.58
2019-02-14T09:50:12.660Z,89.04
2019-02-14T09:52:41.740Z,88.66
2019-02-14T09:55:12.465Z,87.07
2019-02-14T09:57:40.896Z,86.44
2019-02-14T10:00:17.410Z,87.00
2019-02-14T10:02:45.807Z,87.39
2019-02-14T10:05:15.236Z,87.99
2019-02-14T10:07:43.754Z,86.78
2019-02-14T10:10:14.835Z,85.42
2019-02-14T10:12:43.258Z,85.77
2019-02-14T10:15:11.996Z,85.73
2019-02-14T10:17:40.425Z,85.28
2019-02-14T10:20:12.242Z,85.42
2019-02-14T10:22:40.736Z,84.33
2019-02-14T10:25:09.469Z,83.31
2019-02-14T10:27:37.896Z,83.65
2019-02-14T10:30:14.988Z,82.57
2019-02-14T10:32:43.456Z,81.99
2019-02-14T10:35:12.025Z,80.55
2019-02-14T10:37:40.431Z,80.55
2019-02-14T10:40:13.948Z,81.02
2019-02-14T10:42:42.441Z,81.95
2019-02-14T10:45:19.090Z,82.32
2019-02-14T10:47:47.502Z,81.47
2019-02-14T10:50:16.039Z,79.77
2019-02-14T10:52:44.462Z,76.88
2019-02-14T10:55:14.602Z,77.14
2019-02-14T10:57:43.090Z,76.87
2019-02-14T11:00:25.662Z,77.21
2019-02-14T11:02:54.151Z,76.70
2019-02-14T11:05:22.728Z,76.55
2019-02-14T11:07:51.277Z,76.16
2019-02-14T11:10:20.121Z,76.02
2019-02-14T11:12:48.545Z,76.17
2019-02-14T11:15:19.283Z,74.66
2019-02-14T11:17:49.052Z,74.19
2019-02-14T11:20:18.107Z,71.12
2019-02-14T11:22:48.840Z,70.43
2019-02-14T11:25:29.095Z,71.65
2019-02-14T11:27:57.506Z,72.75
2019-02-14T11:30:26.008Z,72.95
2019-02-14T11:32:54.413Z,72.64
2019-02-14T11:35:22.904Z,70.27
2019-02-14T11:37:51.300Z,71.12
2019-02-14T11:40:19.768Z,71.80
2019-02-14T11:42:48.197Z,70.98
2019-02-14T11:45:24.712Z,70.15
2019-02-14T11:47:53.136Z,71.31
2019-02-14T11:50:21.527Z,69.75
2019-02-14T11:52:49.953Z,69.21
2019-02-14T11:55:18.384Z,68.25
2019-02-14T11:57:46.859Z,67.07
2019-02-14T12:00:26.241Z,66.78
2019-02-14T12:02:55.894Z,63.97
2019-02-14T12:05:24.709Z,64.24
2019-02-14T12:07:53.208Z,66.45
2019-02-14T12:10:21.633Z,65.91
2019-02-14T12:12:50.130Z,64.02
2019-02-14T12:15:18.618Z,65.17
2019-02-14T12:17:47.092Z,66.24
2019-02-14T12:20:16.378Z,64.91
2019-02-14T12:22:47.220Z,61.48
2019-02-14T12:25:25.561Z,62.65
2019-02-14T12:27:53.969Z,61.36
2019-02-14T12:30:22.898Z,62.28
2019-02-14T12:32:51.314Z,62.04
2019-02-14T12:35:19.709Z,63.64
2019-02-14T12:37:48.109Z,63.61
2019-02-14T12:40:16.546Z,61.79
2019-02-14T12:42:44.942Z,61.52
2019-02-14T12:45:21.615Z,59.17
2019-02-14T12:47:46.785Z,61.09
2019-02-14T12:50:15.261Z,60.62
2019-02-14T12:52:43.692Z,61.83
2019-02-14T12:55:12.160Z,61.62
2019-02-14T12:57:40.571Z,62.55
2019-02-14T13:00:15.027Z,64.02
2019-02-14T13:02:43.433Z,63.41
2019-02-14T13:05:12.082Z,63.07
2019-02-14T13:07:40.505Z,61.81
2019-02-14T13:10:12.127Z,61.91
2019-02-14T13:12:40.607Z,61.15
2019-02-14T13:15:11.956Z,60.10
2019-02-14T13:17:40.386Z,61.43
2019-02-14T13:20:09.336Z,60.32
2019-02-14T13:22:37.726Z,61.68
2019-02-14T13:25:11.883Z,61.45
2019-02-14T13:27:40.438Z,60.58
2019-02-14T13:30:12.114Z,61.86
2019-02-14T13:32:40.511Z,58.56
2019-02-14T13:35:08.906Z,55.63
2019-02-14T13:37:37.394Z,51.63
2019-02-14T13:40:07.138Z,52.35
2019-02-14T13:42:35.550Z,51.80
2019-02-14T13:45:04.525Z,48.87
2019-02-14T13:47:32.939Z,52.19
2019-02-14T13:50:01.353Z,55.94
2019-02-14T13:52:29.758Z,55.78
2019-02-14T13:54:58.187Z,52.93
2019-02-14T13:57:26.574Z,54.43
2019-02-14T13:59:54.991Z,57.24
2019-02-14T14:02:23.442Z,54.91
2019-02-14T14:04:51.869Z,43.30
2019-02-14T14:07:20.377Z,48.19
2019-02-14T14:09:48.893Z,47.90
2019-02-14T14:12:17.272Z,47.92
2019-02-14T14:14:45.713Z,50.18
2019-02-14T14:17:14.138Z,43.84
2019-02-14T14:19:42.532Z,52.13
2019-02-14T14:22:11.025Z,49.57
2019-02-14T14:24:39.451Z,54.03
2019-02-14T14:27:07.884Z,51.57
2019-02-14T14:29:36.313Z,48.02
2019-02-14T14:32:04.737Z,48.64
2019-02-14T14:34:33.158Z,51.38
2019-02-14T14:37:01.571Z,48.83
2019-02-14T14:39:29.988Z,45.64
2019-02-14T14:41:58.472Z,48.66
2019-02-14T14:44:28.543Z,48.33
2019-02-14T14:46:56.967Z,44.83
2019-02-14T14:49:25.404Z,47.02
2019-02-14T14:51:53.811Z,44.08
2019-02-14T14:54:22.292Z,49.93
2019-02-14T14:56:50.708Z,48.14
2019-02-14T14:59:19.127Z,44.58
2019-02-14T15:01:47.531Z,47.97
2019-02-14T15:04:15.953Z,41.33
2019-02-14T15:06:44.394Z,46.37
2019-02-14T15:09:12.790Z,42.43
2019-02-14T15:11:41.219Z,43.49
2019-02-14T15:14:09.646Z,41.39
2019-02-14T15:16:38.047Z,44.05
2019-02-14T15:19:06.485Z,40.90
2019-02-14T15:21:34.897Z,44.73
2019-02-14T15:24:03.366Z,44.04
2019-02-14T15:26:31.804Z,44.40
2019-02-14T15:29:00.189Z,47.06
2019-02-14T15:31:28.632Z,48.06
2019-02-14T15:33:57.150Z,48.21
2019-02-14T15:36:28.151Z,47.88
2019-02-14T15:38:55.692Z,51.38
2019-02-14T15:41:25.012Z,50.59
2019-02-14T15:43:53.411Z,50.98
2019-02-14T15:46:21.832Z,53.04
2019-02-14T15:48:50.259Z,49.08
2019-02-14T15:51:20.020Z,50.74
2019-02-14T15:53:48.581Z,50.01
2019-02-14T15:56:16.982Z,49.11
2019-02-14T15:58:45.397Z,50.81
2019-02-14T16:01:16.404Z,50.64
2019-02-14T16:03:43.940Z,53.61
2019-02-14T16:06:12.362Z,54.49
2019-02-14T16:08:40.780Z,52.70
2019-02-14T16:11:10.160Z,51.96
2019-02-14T16:13:39.326Z,53.65
2019-02-14T16:16:07.728Z,55.63
2019-02-14T16:18:36.186Z,53.86
2019-02-14T16:21:05.802Z,54.27
2019-02-14T16:23:34.705Z,53.56
2019-02-14T16:26:03.267Z,57.00
2019-02-14T16:28:31.678Z,54.78
2019-02-14T16:31:00.088Z,56.72
2019-02-14T16:33:28.490Z,56.44
2019-02-14T16:35:56.892Z,59.45
2019-02-14T16:38:25.305Z,59.59
2019-02-14T16:40:53.709Z,56.99
2019-02-14T16:43:22.130Z,61.15
2019-02-14T16:45:50.532Z,61.25
2019-02-14T16:48:18.935Z,61.25
2019-02-14T16:50:47.404Z,63.37
2019-02-14T16:53:15.828Z,63.06
2019-02-14T16:55:44.250Z,64.50
2019-02-14T16:58:12.670Z,64.72
2019-02-14T17:00:41.088Z,66.07
2019-02-14T17:03:09.578Z,65.13
2019-02-14T17:05:37.997Z,64.61
2019-02-14T17:08:06.391Z,66.70
2019-02-14T17:10:36.964Z,66.61
2019-02-14T17:13:04.987Z,66.78
2019-02-14T17:15:33.414Z,67.96
2019-02-14T17:18:01.812Z,69.19
2019-02-14T17:20:30.223Z,68.40
2019-02-14T17:22:58.626Z,70.02
2019-02-14T17:25:27.017Z,71.18
2019-02-14T17:27:55.534Z,71.86
2019-02-14T17:30:23.996Z,73.14
2019-02-14T17:32:52.397Z,72.37
2019-02-14T17:35:20.821Z,72.95
2019-02-14T17:37:49.218Z,73.51
2019-02-14T17:40:17.641Z,73.81
2019-02-14T17:42:46.058Z,74.92
2019-02-14T17:45:14.518Z,74.87
2019-02-14T17:47:42.945Z,75.03
2019-02-14T17:50:11.404Z,75.57
2019-02-14T17:52:39.819Z,76.14
2019-02-14T17:55:09.879Z,76.21
2019-02-14T17:57:38.295Z,77.96
2019-02-14T18:00:10.118Z,77.39
2019-02-14T18:02:38.542Z,75.46
2019-02-14T18:05:08.995Z,76.23
2019-02-14T18:07:37.564Z,76.09
2019-02-14T18:10:11.396Z,76.05
2019-02-14T18:12:39.800Z,77.15
2019-02-14T18:15:13.483Z,76.83
2019-02-14T18:17:41.912Z,77.27
2019-02-14T18:20:11.573Z,77.94
2019-02-14T18:22:40.062Z,78.99
2019-02-14T18:25:12.615Z,78.12
2019-02-14T18:27:41.110Z,78.45
2019-02-14T18:30:11.081Z,78.69
2019-02-14T18:32:39.536Z,78.87
2019-02-14T18:35:11.059Z,79.19
2019-02-14T18:37:39.564Z,80.03
2019-02-14T18:40:10.073Z,79.26
2019-02-14T18:42:41.128Z,81.35
2019-02-14T18:45:12.120Z,80.31
2019-02-14T18:47:40.536Z,80.32
2019-02-14T18:50:11.601Z,79.40
2019-02-14T18:52:40.011Z,79.97
2019-02-14T18:55:10.289Z,79.91
2019-02-14T18:57:38.687Z,80.54
2019-02-14T19:00:15.433Z,79.22
2019-02-14T19:02:43.853Z,81.07
2019-02-14T19:05:12.711Z,80.66
2019-02-14T19:07:41.299Z,80.09
2019-02-14T19:10:17.069Z,79.98
2019-02-14T19:12:45.534Z,82.25
2019-02-14T19:15:14.532Z,81.69
2019-02-14T19:17:43.164Z,79.92
2019-02-14T19:20:12.612Z,79.68
2019-02-14T19:22:44.065Z,80.00
2019-02-14T19:25:12.575Z,79.94
2019-02-14T19:27:40.993Z,79.58
2019-02-14T19:30:11.263Z,78.56
2019-02-14T19:32:39.839Z,77.99
2019-02-14T19:35:09.448Z,77.83
2019-02-14T19:37:37.870Z,78.08
2019-02-14T19:40:08.200Z,77.80
2019-02-14T19:42:36.673Z,79.42
2019-02-14T19:45:08.129Z,79.69
2019-02-14T19:47:36.568Z,81.29
2019-02-14T19:50:08.294Z,80.21
2019-02-14T19:52:36.703Z,79.82
2019-02-14T19:55:06.842Z,79.84
2019-02-14T19:57:35.300Z,79.91
2019-02-14T20:00:05.605Z,79.30
2019-02-14T20:02:34.016Z,80.78
2019-02-14T20:05:02.616Z,81.71
2019-02-14T20:07:31.023Z,81.26
2019-02-14T20:09:59.552Z,80.30
2019-02-14T20:12:27.928Z,81.09
2019-02-14T20:14:56.397Z,81.73
2019-02-14T20:17:25.286Z,82.76
2019-02-14T20:19:53.716Z,81.71
2019-02-14T20:22:22.222Z,81.01
2019-02-14T20:24:50.632Z,81.36
2019-02-14T20:27:19.046Z,82.03
2019-02-14T20:29:47.480Z,81.97
2019-02-14T20:32:15.912Z,82.77
2019-02-14T20:34:44.360Z,82.68
2019-02-14T20:37:12.776Z,83.02
2019-02-14T20:39:41.240Z,83.25
2019-02-14T20:42:09.706Z,80.94
2019-02-14T20:44:38.233Z,82.00
2019-02-14T20:47:06.825Z,82.10
2019-02-14T20:49:35.234Z,82.72
2019-02-14T20:52:03.737Z,83.18
2019-02-14T20:54:32.190Z,82.83
2019-02-14T20:57:00.588Z,83.39
2019-02-14T20:59:29.017Z,82.95
2019-02-14T21:01:57.558Z,83.15
2019-02-14T21:04:25.969Z,82.57
2019-02-14T21:06:54.456Z,82.56
2019-02-14T21:09:22.860Z,82.35
2019-02-14T21:11:54.764Z,81.51
2019-02-14T21:14:21.554Z,82.35
2019-02-14T21:16:49.968Z,81.51
2019-02-14T21:19:18.369Z,82.09
2019-02-14T21:21:46.799Z,82.13
2019-02-14T21:24:15.215Z,81.95
2019-02-14T21:26:43.627Z,82.32
2019-02-14T21:29:12.093Z,81.98
2019-02-14T21:31:40.488Z,81.68
2019-02-14T21:34:09.055Z,81.97
2019-02-14T21:36:37.721Z,82.19
2019-02-14T21:48:30.030Z,82.48
2019-02-14T21:50:58.484Z,80.76
2019-02-14T21:53:26.971Z,81.64
2019-02-14T21:55:55.446Z,82.71
2019-02-14T21:58:23.973Z,82.18
2019-02-14T22:03:46.452Z,83.47
2019-02-14T22:06:14.849Z,82.91
2019-02-14T22:08:43.288Z,82.38
2019-02-14T22:11:11.694Z,81.02
2019-02-14T22:13:40.141Z,81.47
2019-02-14T22:16:08.755Z,81.41
2019-02-14T22:18:37.184Z,79.88
2019-02-14T22:21:05.778Z,81.57
2019-02-14T22:23:34.420Z,81.02
2019-02-14T22:26:02.923Z,81.09
2019-02-14T22:28:31.445Z,80.38
2019-02-14T22:30:59.888Z,80.65
2019-02-14T22:33:28.355Z,79.88
2019-02-14T22:35:56.754Z,79.33
2019-02-14T22:38:25.152Z,78.68
2019-02-14T22:40:53.643Z,79.56
2019-02-14T22:43:22.058Z,78.87
2019-02-14T22:45:50.533Z,79.17
2019-02-14T22:48:18.924Z,79.03
2019-02-14T22:50:47.354Z,77.68
2019-02-14T22:53:15.760Z,78.75
2019-02-14T22:55:44.192Z,79.78
2019-02-14T22:58:12.645Z,80.00
2019-02-14T23:00:44.188Z,79.76
2019-02-14T23:03:12.669Z,78.43
2019-02-14T23:05:41.056Z,77.19
2019-02-14T23:08:09.624Z,79.03
2019-02-14T23:10:38.016Z,79.75
2019-02-14T23:13:06.583Z,79.53
2019-02-14T23:15:35.016Z,79.49
2019-02-14T23:18:03.574Z,79.64
2019-02-14T23:20:32.056Z,80.06
2019-02-14T23:23:00.456Z,79.77
2019-02-14T23:25:28.933Z,79.34
2019-02-14T23:27:57.910Z,79.55
2019-02-14T23:30:26.300Z,79.84
2019-02-14T23:32:54.755Z,80.09
2019-02-14T23:35:23.183Z,80.16
2019-02-14T23:37:51.596Z,81.07
2019-02-14T23:40:20.034Z,80.86
2019-02-14T23:42:48.450Z,79.73
2019-02-14T23:45:16.893Z,79.92
2019-02-14T23:47:45.302Z,79.07
2019-02-14T23:50:13.706Z,80.05
2019-02-14T23:52:42.107Z,80.18
2019-02-14T23:55:10.679Z,79.16
2019-02-14T23:57:39.063Z,79.94
